createdAt,value
2023-09-23T00:02:19.617Z,62.40
2023-09-23T00:04:46.885Z,62.50
2023-09-23T00:07:13.970Z,62.50
2023-09-23T00:09:40.797Z,62.40
2023-09-23T00:12:07.847Z,62.50
2023-09-23T00:14:34.628Z,62.50
2023-09-23T00:17:01.459Z,62.40
2023-09-23T00:19:28.657Z,62.50
2023-09-23T00:21:55.632Z,62.40
2023-09-23T00:24:25.210Z,62.50
2023-09-23T00:26:52.062Z,62.50
2023-09-23T00:29:19.025Z,62.50
2023-09-23T00:31:45.922Z,62.60
2023-09-23T00:34:13.695Z,62.50
2023-09-23T00:36:40.800Z,62.60
2023-09-23T00:39:07.924Z,62.50
2023-09-23T00:41:34.733Z,62.50
2023-09-23T00:44:02.179Z,62.50
2023-09-23T00:46:29.126Z,62.50
2023-09-23T00:48:56.098Z,62.50
2023-09-23T00:51:22.991Z,62.50
2023-09-23T00:53:51.568Z,62.50
2023-09-23T00:56:21.906Z,62.50
2023-09-23T00:58:48.915Z,62.50
2023-09-23T01:01:16.004Z,62.50
2023-09-23T01:03:43.502Z,62.50
2023-09-23T01:06:17.049Z,62.50
2023-09-23T01:08:46.243Z,62.50
2023-09-23T01:11:14.565Z,62.50
2023-09-23T01:13:44.283Z,62.50
2023-09-23T01:16:14.635Z,62.60
2023-09-23T01:18:46.756Z,62.60
2023-09-23T01:21:14.092Z,62.60
2023-09-23T01:23:41.099Z,62.60
2023-09-23T01:26:12.845Z,62.60
2023-09-23T01:28:39.970Z,62.60
2023-09-23T01:31:07.934Z,62.60
2023-09-23T01:33:35.691Z,62.60
2023-09-23T01:36:05.901Z,62.50
2023-09-23T01:38:33.888Z,62.50
2023-09-23T01:41:05.392Z,62.50
2023-09-23T01:43:32.407Z,62.50
2023-09-23T01:46:05.089Z,62.50
2023-09-23T01:48:34.350Z,62.50
2023-09-23T01:51:01.382Z,62.60
2023-09-23T01:53:29.263Z,62.60
2023-09-23T01:55:56.686Z,62.60
2023-09-23T01:58:24.056Z,62.50
2023-09-23T02:00:52.438Z,62.60
2023-09-23T02:03:20.202Z,62.50
2023-09-23T02:05:48.071Z,62.60
2023-09-23T02:08:15.226Z,62.90
2023-09-23T02:10:47.242Z,62.70
2023-09-23T02:13:14.411Z,62.70
2023-09-23T02:15:41.267Z,62.60
2023-09-23T02:18:08.152Z,62.60
2023-09-23T02:20:35.672Z,62.60
2023-09-23T02:23:04.222Z,62.60
2023-09-23T02:25:31.205Z,62.60
2023-09-23T02:27:59.678Z,62.60
2023-09-23T02:30:26.814Z,62.70
2023-09-23T02:32:53.738Z,62.70
2023-09-23T02:35:21.346Z,62.70
2023-09-23T02:37:52.361Z,62.70
2023-09-23T02:40:19.912Z,62.60
2023-09-23T02:42:48.305Z,62.70
2023-09-23T02:45:17.570Z,62.70
2023-09-23T02:47:45.312Z,62.70
2023-09-23T02:50:16.642Z,62.70
2023-09-23T02:52:46.709Z,62.70
2023-09-23T02:55:16.332Z,62.80
2023-09-23T02:57:51.078Z,62.70
2023-09-23T03:00:20.291Z,62.80
2023-09-23T03:02:52.177Z,62.80
2023-09-23T03:05:22.657Z,62.80
2023-09-23T03:07:50.872Z,62.80
2023-09-23T03:10:30.175Z,62.80
2023-09-23T03:13:03.450Z,62.80
2023-09-23T03:15:35.510Z,62.90
2023-09-23T03:18:03.576Z,63.10
2023-09-23T03:20:31.421Z,63.10
2023-09-23T03:22:58.777Z,63.10
2023-09-23T03:25:26.305Z,63.10
2023-09-23T03:27:53.925Z,63.10
2023-09-23T03:30:21.237Z,63.00
2023-09-23T03:32:48.467Z,63.00
2023-09-23T03:35:25.096Z,63.00
2023-09-23T03:37:52.480Z,63.00
2023-09-23T03:40:26.162Z,63.10
2023-09-23T03:42:53.493Z,63.00
2023-09-23T03:45:21.142Z,63.00
2023-09-23T03:47:48.183Z,63.00
2023-09-23T03:50:16.073Z,62.90
2023-09-23T03:52:43.522Z,62.90
2023-09-23T03:55:12.507Z,63.00
2023-09-23T03:57:41.308Z,63.00
2023-09-23T04:00:17.148Z,63.00
2023-09-23T04:02:48.527Z,63.10
2023-09-23T04:05:21.123Z,63.10
2023-09-23T04:07:51.591Z,63.10
2023-09-23T04:10:20.995Z,63.00
2023-09-23T04:12:47.872Z,63.00
2023-09-23T04:15:14.762Z,63.00
2023-09-23T04:17:41.906Z,63.00
2023-09-23T04:20:14.333Z,63.00
2023-09-23T04:22:42.378Z,63.00
2023-09-23T04:25:10.145Z,63.00
2023-09-23T04:27:37.910Z,63.00
2023-09-23T04:30:10.139Z,63.10
2023-09-23T04:32:37.804Z,63.10
2023-09-23T04:35:05.375Z,63.10
2023-09-23T04:37:37.970Z,63.10
2023-09-23T04:40:14.828Z,63.10
2023-09-23T04:42:43.335Z,63.10
2023-09-23T04:45:11.503Z,63.10
2023-09-23T04:47:39.322Z,63.10
2023-09-23T04:50:08.796Z,63.20
2023-09-23T04:52:35.856Z,63.20
2023-09-23T04:55:03.479Z,63.20
2023-09-23T04:57:30.551Z,63.50
2023-09-23T04:59:58.703Z,64.10
2023-09-23T05:02:27.354Z,63.40
2023-09-23T05:04:54.899Z,63.40
2023-09-23T05:07:26.313Z,63.40
2023-09-23T05:09:54.098Z,63.40
2023-09-23T05:12:22.104Z,63.30
2023-09-23T05:14:49.736Z,63.30
2023-09-23T05:17:18.191Z,63.30
2023-09-23T05:19:47.636Z,63.30
2023-09-23T05:22:14.740Z,63.30
2023-09-23T05:24:42.818Z,63.30
2023-09-23T05:27:10.781Z,63.30
2023-09-23T05:29:37.825Z,63.30
2023-09-23T05:32:04.973Z,63.30
2023-09-23T05:34:32.749Z,63.30
2023-09-23T05:36:59.510Z,63.30
2023-09-23T05:39:27.062Z,63.30
2023-09-23T05:41:54.970Z,63.30
2023-09-23T05:44:21.812Z,63.30
2023-09-23T05:46:49.829Z,63.30
2023-09-23T05:49:16.858Z,63.30
2023-09-23T05:51:45.236Z,63.30
2023-09-23T05:54:13.024Z,63.30
2023-09-23T05:56:39.865Z,63.30
2023-09-23T05:59:08.593Z,63.30
2023-09-23T06:01:36.589Z,63.40
2023-09-23T06:04:05.068Z,63.20
2023-09-23T06:06:32.757Z,62.90
2023-09-23T06:08:59.804Z,63.10
2023-09-23T06:11:27.446Z,63.30
2023-09-23T06:13:54.449Z,63.50
2023-09-23T06:16:21.397Z,63.40
2023-09-23T06:18:49.139Z,63.50
2023-09-23T06:21:15.962Z,63.60
2023-09-23T06:23:42.789Z,63.70
2023-09-23T06:26:11.322Z,63.80
2023-09-23T06:28:38.250Z,63.90
2023-09-23T06:31:08.084Z,64.00
2023-09-23T06:33:35.155Z,64.10
2023-09-23T06:36:05.638Z,64.20
2023-09-23T06:38:33.903Z,64.30
2023-09-23T06:41:00.930Z,64.30
2023-09-23T06:43:28.085Z,64.50
2023-09-23T06:45:58.799Z,64.50
2023-09-23T06:48:26.651Z,64.60
2023-09-23T06:50:59.568Z,64.60
2023-09-23T06:53:26.413Z,64.80
2023-09-23T06:55:53.361Z,64.80
2023-09-23T06:58:20.189Z,65.00
2023-09-23T07:00:47.061Z,65.00
2023-09-23T07:03:13.965Z,65.10
2023-09-23T07:05:41.081Z,65.30
2023-09-23T07:08:08.734Z,65.40
2023-09-23T07:10:39.596Z,65.40
2023-09-23T07:13:09.191Z,65.50
2023-09-23T07:15:38.505Z,65.60
2023-09-23T07:18:09.235Z,65.70
2023-09-23T07:20:36.244Z,65.70
2023-09-23T07:23:04.320Z,65.70
2023-09-23T07:25:31.363Z,65.70
2023-09-23T07:28:01.335Z,65.80
2023-09-23T07:30:28.973Z,65.70
2023-09-23T07:32:55.787Z,65.70
2023-09-23T07:35:22.615Z,65.70
2023-09-23T07:37:49.473Z,65.60
2023-09-23T07:40:16.497Z,65.70
2023-09-23T07:42:43.274Z,65.60
2023-09-23T07:45:10.794Z,65.60
2023-09-23T07:47:37.653Z,65.50
2023-09-23T07:50:04.964Z,65.40
2023-09-23T07:52:34.951Z,65.30
2023-09-23T07:55:02.373Z,65.30
2023-09-23T07:57:29.439Z,65.50
2023-09-23T07:59:56.263Z,65.60
2023-09-23T08:02:24.030Z,65.50
2023-09-23T08:04:51.150Z,65.60
2023-09-23T08:07:18.333Z,65.70
2023-09-23T08:09:45.912Z,65.70
2023-09-23T08:12:12.698Z,65.60
2023-09-23T08:14:39.523Z,65.30
2023-09-23T08:17:06.356Z,65.20
2023-09-23T08:19:33.227Z,65.20
2023-09-23T08:22:00.199Z,65.00
2023-09-23T08:24:27.044Z,65.00
2023-09-23T08:26:54.528Z,64.80
2023-09-23T08:29:21.518Z,64.70
2023-09-23T08:31:49.476Z,64.70
2023-09-23T08:34:18.218Z,65.40
2023-09-23T08:36:45.067Z,65.40
2023-09-23T08:39:12.993Z,65.30
2023-09-23T08:41:40.232Z,65.20
2023-09-23T08:44:07.194Z,64.80
2023-09-23T08:46:34.279Z,64.30
2023-09-23T08:49:01.584Z,63.90
2023-09-23T08:51:28.915Z,63.80
2023-09-23T08:53:56.569Z,63.50
2023-09-23T08:56:23.524Z,63.40
2023-09-23T08:58:50.626Z,63.30
2023-09-23T09:01:18.473Z,63.30
2023-09-23T09:03:46.605Z,63.10
2023-09-23T09:06:19.275Z,63.00
2023-09-23T09:08:46.996Z,62.90
2023-09-23T09:11:22.468Z,62.80
2023-09-23T09:13:50.806Z,62.50
2023-09-23T09:16:17.872Z,62.60
2023-09-23T09:18:44.975Z,62.60
2023-09-23T09:21:11.978Z,62.50
2023-09-23T09:23:39.646Z,62.30
2023-09-23T09:26:06.494Z,61.40
2023-09-23T09:28:33.554Z,60.50
2023-09-23T09:31:01.552Z,59.80
2023-09-23T09:33:30.445Z,59.60
2023-09-23T09:35:57.839Z,59.50
2023-09-23T09:38:27.142Z,59.30
2023-09-23T09:41:03.725Z,59.00
2023-09-23T09:43:35.073Z,59.10
2023-09-23T09:46:09.949Z,59.50
2023-09-23T09:48:44.287Z,59.70
2023-09-23T09:51:15.282Z,59.80
2023-09-23T09:53:44.181Z,60.10
2023-09-23T09:56:11.729Z,60.10
2023-09-23T09:58:39.402Z,59.20
2023-09-23T10:01:13.852Z,58.30
2023-09-23T10:03:44.760Z,57.80
2023-09-23T10:06:20.363Z,57.50
2023-09-23T10:08:50.371Z,57.40
2023-09-23T10:11:18.135Z,58.10
2023-09-23T10:13:45.413Z,57.30
2023-09-23T10:16:14.455Z,57.50
2023-09-23T10:18:42.450Z,58.40
2023-09-23T10:21:22.157Z,59.00
2023-09-23T10:23:55.688Z,59.60
2023-09-23T10:26:24.715Z,60.60
2023-09-23T10:29:09.881Z,59.90
2023-09-23T10:31:36.900Z,59.80
2023-09-23T10:34:11.448Z,59.90
2023-09-23T10:36:38.469Z,59.70
2023-09-23T10:39:08.379Z,59.50
2023-09-23T10:41:36.399Z,59.70
2023-09-23T10:44:04.555Z,60.00
2023-09-23T10:46:32.112Z,59.50
2023-09-23T10:48:59.927Z,59.50
2023-09-23T10:51:27.613Z,59.40
2023-09-23T10:53:56.926Z,59.90
2023-09-23T10:56:26.374Z,59.80
2023-09-23T10:58:53.594Z,60.20
2023-09-23T11:01:22.122Z,60.00
2023-09-23T11:03:49.417Z,59.40
2023-09-23T11:06:17.868Z,58.80
2023-09-23T11:08:45.460Z,58.50
2023-09-23T11:11:14.004Z,58.00
2023-09-23T11:13:41.270Z,57.40
2023-09-23T11:16:11.806Z,57.00
2023-09-23T11:18:39.273Z,56.70
2023-09-23T11:21:06.671Z,56.80
2023-09-23T11:23:35.025Z,56.50
2023-09-23T11:26:03.658Z,56.30
2023-09-23T11:28:31.103Z,56.30
2023-09-23T11:30:59.489Z,56.30
2023-09-23T11:33:26.900Z,56.20
2023-09-23T11:35:55.957Z,55.90
2023-09-23T11:38:22.841Z,55.50
2023-09-23T11:40:49.838Z,55.40
2023-09-23T11:43:17.091Z,55.70
2023-09-23T11:45:44.584Z,55.20
2023-09-23T11:48:11.966Z,54.80
2023-09-23T11:50:39.788Z,54.80
2023-09-23T11:53:06.941Z,54.20
2023-09-23T11:55:34.739Z,53.60
2023-09-23T11:58:01.878Z,53.10
2023-09-23T12:00:29.846Z,51.90
2023-09-23T12:02:58.770Z,50.80
2023-09-23T12:05:31.833Z,50.10
2023-09-23T12:08:02.633Z,49.50
2023-09-23T12:10:31.656Z,49.20
2023-09-23T12:13:04.414Z,49.60
2023-09-23T12:15:35.434Z,50.10
2023-09-23T12:18:02.557Z,53.10
2023-09-23T12:20:29.827Z,54.90
2023-09-23T12:22:59.913Z,55.10
2023-09-23T12:25:27.082Z,55.80
2023-09-23T12:27:53.958Z,58.30
2023-09-23T12:30:21.006Z,55.30
2023-09-23T12:32:47.981Z,56.20
2023-09-23T12:35:15.052Z,58.70
2023-09-23T12:37:42.178Z,59.90
2023-09-23T12:40:11.298Z,58.50
2023-09-23T12:42:38.346Z,60.10
2023-09-23T12:45:07.672Z,58.50
2023-09-23T12:47:53.014Z,57.90
2023-09-23T12:50:23.360Z,56.80
2023-09-23T12:52:50.284Z,58.00
2023-09-23T12:55:17.234Z,59.10
2023-09-23T12:57:44.115Z,58.80
2023-09-23T13:00:11.283Z,61.10
2023-09-23T13:02:38.182Z,61.30
2023-09-23T13:05:05.486Z,61.10
2023-09-23T13:07:32.327Z,61.80
2023-09-23T13:09:59.055Z,60.50
2023-09-23T13:12:25.946Z,62.10
2023-09-23T13:14:53.294Z,61.80
2023-09-23T13:17:20.108Z,61.60
2023-09-23T13:19:47.792Z,60.90
2023-09-23T13:22:14.690Z,61.50
2023-09-23T13:24:41.459Z,59.40
2023-09-23T13:27:08.255Z,59.10
2023-09-23T13:29:35.135Z,60.40
2023-09-23T13:32:02.365Z,58.70
2023-09-23T13:34:29.303Z,60.10
2023-09-23T13:36:56.133Z,60.90
2023-09-23T13:39:23.096Z,60.70
2023-09-23T13:41:50.052Z,60.30
2023-09-23T13:44:16.842Z,60.80
2023-09-23T13:46:43.765Z,60.60
2023-09-23T13:49:11.772Z,61.00
2023-09-23T13:51:38.533Z,60.50
2023-09-23T13:54:05.459Z,61.40
2023-09-23T13:56:32.285Z,61.60
2023-09-23T13:58:59.024Z,62.00
2023-09-23T14:01:25.931Z,62.00
2023-09-23T14:03:53.132Z,60.70
2023-09-23T14:06:20.013Z,58.00
2023-09-23T14:08:47.100Z,59.60
2023-09-23T14:11:14.531Z,60.30
2023-09-23T14:13:41.551Z,61.80
2023-09-23T14:16:09.024Z,61.30
2023-09-23T14:18:36.377Z,62.50
2023-09-23T14:21:03.638Z,63.00
2023-09-23T14:23:31.792Z,63.60
2023-09-23T14:25:58.806Z,61.80
2023-09-23T14:28:26.110Z,62.70
2023-09-23T14:30:52.944Z,62.10
2023-09-23T14:33:19.792Z,63.30
2023-09-23T14:35:46.719Z,63.60
2023-09-23T14:38:13.792Z,64.10
2023-09-23T14:40:40.628Z,63.40
2023-09-23T14:43:07.409Z,64.70
2023-09-23T14:45:34.832Z,64.80
2023-09-23T14:48:01.924Z,65.10
2023-09-23T14:50:28.844Z,65.40
2023-09-23T14:52:57.125Z,65.70
2023-09-23T14:55:24.035Z,65.50
2023-09-23T14:57:50.944Z,65.90
2023-09-23T15:00:18.019Z,66.00
2023-09-23T15:02:45.304Z,66.50
2023-09-23T15:05:13.600Z,66.40
2023-09-23T15:07:40.629Z,66.30
2023-09-23T15:10:08.176Z,66.20
2023-09-23T15:12:36.381Z,66.70
2023-09-23T15:15:07.892Z,66.70
2023-09-23T15:17:36.948Z,66.80
2023-09-23T15:20:03.776Z,67.20
2023-09-23T15:22:30.569Z,67.20
2023-09-23T15:24:57.398Z,66.70
2023-09-23T15:27:24.248Z,67.40
2023-09-23T15:29:52.975Z,67.50
2023-09-23T15:32:19.832Z,68.00
2023-09-23T15:34:47.893Z,66.90
2023-09-23T15:37:14.632Z,67.80
2023-09-23T15:39:41.426Z,66.70
2023-09-23T15:42:08.221Z,67.50
2023-09-23T15:44:35.206Z,67.60
2023-09-23T15:47:02.012Z,67.70
2023-09-23T15:49:28.782Z,67.30
2023-09-23T15:52:10.810Z,67.60
2023-09-23T15:54:38.362Z,68.10
2023-09-23T15:57:05.100Z,66.70
2023-09-23T15:59:31.908Z,67.40
2023-09-23T16:01:58.765Z,68.20
2023-09-23T16:04:26.047Z,68.10
2023-09-23T16:06:53.029Z,68.10
2023-09-23T16:09:20.490Z,68.30
2023-09-23T16:11:47.324Z,68.30
2023-09-23T16:14:14.213Z,66.50
2023-09-23T16:16:41.114Z,67.20
2023-09-23T16:19:08.246Z,68.60
2023-09-23T16:21:35.072Z,67.10
2023-09-23T16:24:01.874Z,68.00
2023-09-23T16:26:28.673Z,68.30
2023-09-23T16:28:56.404Z,66.70
2023-09-23T16:31:23.243Z,66.30
2023-09-23T16:33:50.119Z,65.60
2023-09-23T16:36:17.794Z,65.80
2023-09-23T16:38:47.196Z,66.60
2023-09-23T16:41:14.278Z,67.20
2023-09-23T16:43:41.244Z,67.60
2023-09-23T16:46:09.805Z,68.10
2023-09-23T16:48:37.106Z,68.00
2023-09-23T16:51:04.128Z,68.20
2023-09-23T16:53:31.043Z,68.60
2023-09-23T16:55:57.885Z,69.00
2023-09-23T16:58:24.774Z,69.30
2023-09-23T17:00:51.556Z,69.20
2023-09-23T17:03:18.497Z,69.70
2023-09-23T17:05:47.857Z,69.50
2023-09-23T17:08:14.731Z,69.70
2023-09-23T17:10:41.527Z,69.70
2023-09-23T17:13:08.376Z,69.40
2023-09-23T17:15:35.190Z,69.80
2023-09-23T17:18:02.367Z,69.80
2023-09-23T17:20:30.826Z,69.70
2023-09-23T17:22:57.678Z,69.90
2023-09-23T17:25:24.713Z,69.80
2023-09-23T17:27:51.565Z,69.60
2023-09-23T17:30:18.413Z,70.10
2023-09-23T17:32:45.480Z,70.00
2023-09-23T17:35:13.747Z,70.30
2023-09-23T17:37:40.548Z,70.30
2023-09-23T17:40:08.122Z,70.30
2023-09-23T17:42:34.933Z,70.30
2023-09-23T17:45:01.722Z,70.40
2023-09-23T17:47:28.801Z,70.20
2023-09-23T17:49:55.654Z,70.30
2023-09-23T17:52:22.505Z,70.20
2023-09-23T17:54:49.738Z,70.20
2023-09-23T17:57:16.768Z,70.20
2023-09-23T17:59:43.633Z,70.00
2023-09-23T18:02:10.481Z,70.20
2023-09-23T18:04:37.753Z,70.00
2023-09-23T18:07:05.527Z,70.00
2023-09-23T18:09:32.329Z,70.20
2023-09-23T18:11:59.087Z,70.10
2023-09-23T18:14:26.041Z,70.20
2023-09-23T18:16:53.440Z,70.00
2023-09-23T18:19:20.200Z,69.80
2023-09-23T18:21:47.199Z,67.80
2023-09-23T18:24:14.075Z,68.30
2023-09-23T18:26:41.022Z,68.90
2023-09-23T18:29:08.053Z,69.20
2023-09-23T18:31:34.925Z,69.70
2023-09-23T18:34:01.756Z,69.60
2023-09-23T18:36:28.642Z,69.90
2023-09-23T18:38:55.452Z,70.20
2023-09-23T18:41:22.352Z,70.40
2023-09-23T18:43:49.953Z,70.40
2023-09-23T18:46:16.855Z,70.60
2023-09-23T18:48:43.792Z,70.50
2023-09-23T18:51:10.734Z,70.40
2023-09-23T18:53:44.270Z,70.50
2023-09-23T18:56:11.105Z,70.60
2023-09-23T18:58:37.943Z,70.60
2023-09-23T19:01:05.320Z,70.60
2023-09-23T19:03:32.444Z,70.80
2023-09-23T19:06:00.287Z,70.70
2023-09-23T19:08:27.246Z,70.80
2023-09-23T19:10:54.104Z,70.70
2023-09-23T19:13:21.007Z,70.70
2023-09-23T19:15:49.498Z,70.80
2023-09-23T19:18:17.100Z,70.80
2023-09-23T19:20:44.181Z,70.70
2023-09-23T19:23:12.084Z,70.80
2023-09-23T19:25:38.895Z,70.90
2023-09-23T19:28:05.929Z,70.90
2023-09-23T19:30:33.072Z,71.00
2023-09-23T19:32:59.951Z,70.90
2023-09-23T19:35:28.139Z,71.10
2023-09-23T19:37:54.977Z,71.00
2023-09-23T19:40:21.909Z,71.10
2023-09-23T19:42:48.968Z,71.10
2023-09-23T19:45:18.395Z,71.00
2023-09-23T19:47:45.377Z,71.40
2023-09-23T19:50:12.451Z,71.10
2023-09-23T19:52:39.252Z,71.30
2023-09-23T19:55:06.215Z,71.20
2023-09-23T19:57:33.022Z,71.60
2023-09-23T20:00:00.429Z,71.40
2023-09-23T20:02:27.720Z,71.70
2023-09-23T20:04:54.673Z,71.10
2023-09-23T20:07:24.525Z,71.60
2023-09-23T20:09:51.307Z,71.50
2023-09-23T20:12:18.096Z,71.60
2023-09-23T20:14:45.005Z,71.60
2023-09-23T20:17:15.704Z,71.60
2023-09-23T20:19:42.537Z,71.70
2023-09-23T20:22:09.480Z,71.70
2023-09-23T20:24:36.210Z,71.70
2023-09-23T20:27:03.221Z,71.80
2023-09-23T20:29:30.196Z,71.80
2023-09-23T20:31:57.001Z,71.70
2023-09-23T20:34:24.971Z,71.80
2023-09-23T20:36:51.931Z,71.90
2023-09-23T20:39:21.211Z,71.80
2023-09-23T20:41:48.428Z,71.90
2023-09-23T20:44:15.469Z,72.50
2023-09-23T20:46:42.340Z,71.90
2023-09-23T20:49:09.160Z,71.90
2023-09-23T20:51:35.924Z,72.00
2023-09-23T20:54:02.828Z,71.90
2023-09-23T20:56:30.065Z,71.90
2023-09-23T20:58:58.231Z,71.90
2023-09-23T21:01:25.026Z,72.00
2023-09-23T21:03:52.211Z,71.90
2023-09-23T21:06:19.573Z,71.90
2023-09-23T21:08:46.411Z,71.70
2023-09-23T21:11:14.334Z,71.90
2023-09-23T21:13:41.132Z,71.90
2023-09-23T21:16:09.351Z,72.00
2023-09-23T21:18:36.243Z,72.10
2023-09-23T21:21:04.394Z,72.10
2023-09-23T21:23:31.239Z,72.50
2023-09-23T21:25:58.077Z,72.00
2023-09-23T21:28:24.845Z,71.80
2023-09-23T21:30:52.427Z,72.00
2023-09-23T21:33:19.579Z,72.00
2023-09-23T21:35:46.540Z,72.00
2023-09-23T21:38:13.471Z,72.20
2023-09-23T21:40:41.276Z,71.80
2023-09-23T21:43:09.038Z,71.60
2023-09-23T21:45:39.359Z,71.90
2023-09-23T21:48:10.416Z,71.90
2023-09-23T21:50:37.517Z,72.20
2023-09-23T21:53:05.287Z,71.90
2023-09-23T21:55:32.067Z,71.90
2023-09-23T21:57:59.212Z,71.90
2023-09-23T22:00:29.274Z,72.10
2023-09-23T22:02:57.967Z,71.80
2023-09-23T22:05:29.382Z,72.10
2023-09-23T22:07:58.833Z,72.00
2023-09-23T22:10:26.898Z,71.60
2023-09-23T22:12:54.552Z,72.00
2023-09-23T22:15:22.129Z,72.00
2023-09-23T22:17:49.415Z,72.10
2023-09-23T22:20:16.778Z,72.20
2023-09-23T22:22:44.572Z,72.10
2023-09-23T22:25:15.805Z,72.20
2023-09-23T22:27:43.692Z,72.40
2023-09-23T22:30:18.058Z,72.20
2023-09-23T22:32:46.430Z,72.10
2023-09-23T22:35:16.703Z,72.20
2023-09-23T22:37:43.648Z,72.20
2023-09-23T22:40:14.869Z,72.30
2023-09-23T22:42:42.813Z,72.30
2023-09-23T22:45:17.698Z,72.30
2023-09-23T22:47:51.081Z,72.40
2023-09-23T22:50:19.631Z,72.30
2023-09-23T22:52:46.444Z,72.30
2023-09-23T22:55:14.789Z,72.40
2023-09-23T22:57:43.430Z,72.20
2023-09-23T23:00:13.370Z,72.20
2023-09-23T23:02:48.444Z,72.40
2023-09-23T23:05:18.774Z,72.40
2023-09-23T23:07:51.056Z,72.40
2023-09-23T23:10:18.323Z,72.20
2023-09-23T23:12:46.753Z,72.30
2023-09-23T23:15:17.228Z,72.30
2023-09-23T23:17:45.931Z,72.20
2023-09-23T23:20:23.534Z,72.30
2023-09-23T23:22:55.396Z,72.40
2023-09-23T23:25:25.550Z,72.30
2023-09-23T23:27:52.743Z,72.60
2023-09-23T23:30:20.528Z,72.40
2023-09-23T23:32:49.566Z,72.60
2023-09-23T23:35:23.059Z,72.60
2023-09-23T23:37:50.777Z,72.60
2023-09-23T23:40:21.214Z,72.70
2023-09-23T23:42:48.100Z,72.70
2023-09-23T23:45:16.907Z,72.70
2023-09-23T23:47:43.786Z,71.90
2023-09-23T23:50:11.004Z,72.60
2023-09-23T23:52:37.878Z,73.10
2023-09-23T23:55:05.006Z,72.40
2023-09-23T23:57:31.766Z,72.60
2023-09-23T23:59:58.667Z,72.40
